Decoded Metar for LTBJ (IZMIR in TURKEY) (IATA:ADB) | Meteo·Mobile Aviation Weather
aviador You're here:

LTBJ Decoded Metar

IZMIR in TURKEY
Report Time2019-03-19 18:50:00
UTC Time2019-03-19 19:05:45
Flight Rules vfr VFR
WindVRB at 02 kt
Visibility9999 m
Phenomena:N/A
Clouds:N/A
Expected CloudBase > 1,200 ft AGL from Temp-Dew spread
CeilingNone
Temp13°C (ISA -1)
Dew Point10°C (82% RH)
AAT12.3°C
QNH1018 hPa
Density Alt246 ft
Elevation394 ft
Report Wrong Elevation
Raw Report
METAR LTBJ 191850Z VRB02KT CAVOK 13/10 Q1018 NOSIG=

Extra information for LTBJ:More info

Metar Taf Metar & Taf Last 4 Metars F.Rules Stats Wind Profile Meteogram Temp Stats Airport Information Weather charts Add Link Nearby VenuesMetar ALERT Operation Metar Decoded Social comments